Time;durP1;ratioP1;P1;durP2;ratioP2;P2;SDS_P1;SDS_P2;PMS_P1;PMS_P2;Temp;Humidity;BMP_temperature;BMP_pressure;BME280_temperature;BME280_humidity;BME280_pressure;Samples;Min_cycle;Max_cycle;Signal;HPM_P1;HPM_P2
2022/09/25 00:01:45;;;;;;;32.67;17.67;;;;;;;;;;5054761;28;20450;-65
2022/09/25 00:04:10;;;;;;;34.40;18.47;;;;;;;;;;5058146;28;20646;-65
2022/09/25 00:06:36;;;;;;;29.20;18.33;;;;;;;;;;5049046;28;20283;-65
2022/09/25 00:09:01;;;;;;;32.83;18.17;;;;;;;;;;5048375;28;20021;-65
2022/09/25 00:11:28;;;;;;;38.83;19.73;;;;;;;;;;5056589;28;20017;-65
2022/09/25 00:13:54;;;;;;;35.88;20.48;;;;;;;;;;5049830;28;20459;-65
2022/09/25 00:16:20;;;;;;;35.85;19.63;;;;;;;;;;5051625;28;20032;-65
2022/09/25 00:21:30;;;;;;;35.50;20.88;;;;;;;;;;5052234;28;20023;-65
2022/09/25 00:23:56;;;;;;;38.13;19.67;;;;;;;;;;5052006;28;20049;-65
2022/09/25 00:26:21;;;;;;;34.28;20.42;;;;;;;;;;5051113;28;20091;-65
2022/09/25 00:28:47;;;;;;;35.43;20.30;;;;;;;;;;5051259;28;20377;-65
2022/09/25 00:31:17;;;;;;;34.30;19.20;;;;;;;;;;5053188;28;20322;-65
2022/09/25 00:33:43;;;;;;;36.53;18.48;;;;;;;;;;5057565;28;20287;-65
2022/09/25 00:36:09;;;;;;;29.48;17.65;;;;;;;;;;5050320;28;20013;-65
2022/09/25 00:38:35;;;;;;;36.05;20.08;;;;;;;;;;5054352;28;20451;-65
2022/09/25 00:41:00;;;;;;;34.72;20.23;;;;;;;;;;5050273;28;20096;-65
2022/09/25 00:43:47;;;;;;;35.00;19.77;;;;;;;;;;5053805;28;20009;-65
2022/09/25 00:46:15;;;;;;;35.20;20.10;;;;;;;;;;5056900;28;20103;-65
2022/09/25 00:48:46;;;;;;;39.03;21.10;;;;;;;;;;5051003;28;20573;-65
2022/09/25 00:51:11;;;;;;;36.63;21.83;;;;;;;;;;5052184;28;20765;-65
2022/09/25 00:53:39;;;;;;;38.17;20.98;;;;;;;;;;5052125;28;20016;-65
2022/09/25 00:56:05;;;;;;;35.30;20.67;;;;;;;;;;5051021;28;20051;-65
2022/09/25 00:58:32;;;;;;;39.30;22.52;;;;;;;;;;5054094;28;20036;-65
2022/09/25 01:00:58;;;;;;;38.80;20.95;;;;;;;;;;5059767;28;20025;-65
2022/09/25 01:03:23;;;;;;;39.33;21.95;;;;;;;;;;5050878;28;20024;-65
2022/09/25 01:05:49;;;;;;;41.20;21.92;;;;;;;;;;5051274;28;20063;-65
2022/09/25 01:08:16;;;;;;;42.72;22.33;;;;;;;;;;5052164;28;20077;-65
2022/09/25 01:10:41;;;;;;;37.38;21.80;;;;;;;;;;5049190;28;20024;-65
2022/09/25 01:13:06;;;;;;;41.95;22.65;;;;;;;;;;5052504;28;20028;-65
2022/09/25 01:15:50;;;;;;;39.00;22.38;;;;;;;;;;5055782;28;20373;-65
2022/09/25 01:18:41;;;;;;;38.70;21.92;;;;;;;;;;5051444;28;20043;-65
2022/09/25 01:21:06;;;;;;;;;;;;;;;;;;5056299;28;20029;-65
2022/09/25 01:23:50;;;;;;;43.10;22.98;;;;;;;;;;5051345;28;20802;-65
2022/09/25 01:26:18;;;;;;;44.75;24.13;;;;;;;;;;5048313;28;20119;-65
2022/09/25 01:28:55;;;;;;;47.25;24.42;;;;;;;;;;5062192;28;20082;-65
2022/09/25 01:31:25;;;;;;;49.53;25.55;;;;;;;;;;5044466;28;20021;-65
2022/09/25 01:33:54;;;;;;;49.38;24.77;;;;;;;;;;5050445;28;20381;-65
2022/09/25 01:36:24;;;;;;;49.70;25.25;;;;;;;;;;5051082;28;20033;-65
2022/09/25 01:38:51;;;;;;;45.78;25.80;;;;;;;;;;5050250;28;20358;-65
2022/09/25 01:41:16;;;;;;;54.30;26.65;;;;;;;;;;5053707;28;20021;-65
2022/09/25 01:44:00;;;;;;;54.88;26.42;;;;;;;;;;5051439;28;20024;-65
2022/09/25 01:46:30;;;;;;;46.50;26.02;;;;;;;;;;5049414;28;20482;-65
2022/09/25 01:49:01;;;;;;;46.33;26.50;;;;;;;;;;5048734;28;20017;-65
2022/09/25 01:51:27;;;;;;;;;;;;;;;;;;5055059;28;20032;-65
2022/09/25 01:53:57;;;;;;;48.38;25.58;;;;;;;;;;5050677;28;19909;-65
2022/09/25 01:56:28;;;;;;;43.97;24.67;;;;;;;;;;5050347;28;20017;-65
2022/09/25 01:58:55;;;;;;;52.35;25.67;;;;;;;;;;5057890;28;20025;-65
2022/09/25 02:01:27;;;;;;;47.95;26.35;;;;;;;;;;5043652;28;20056;-65
2022/09/25 02:03:56;;;;;;;53.08;28.77;;;;;;;;;;5049110;28;20064;-65
2022/09/25 02:06:22;;;;;;;57.10;28.27;;;;;;;;;;5056585;28;20013;-65
2022/09/25 02:09:02;;;;;;;52.67;27.45;;;;;;;;;;5053166;28;20029;-65
2022/09/25 02:11:30;;;;;;;49.47;26.87;;;;;;;;;;5048023;28;20021;-65
2022/09/25 02:13:57;;;;;;;58.80;28.52;;;;;;;;;;5048368;28;20024;-65
2022/09/25 02:16:49;;;;;;;48.50;26.77;;;;;;;;;;5049159;28;20017;-65
2022/09/25 02:22:05;;;;;;;49.60;25.45;;;;;;;;;;5050281;28;20023;-65
2022/09/25 02:24:38;;;;;;;45.45;24.85;;;;;;;;;;5056344;28;20092;-65
2022/09/25 02:27:03;;;;;;;48.85;25.58;;;;;;;;;;5049224;28;20508;-65
2022/09/25 02:29:28;;;;;;;48.73;24.83;;;;;;;;;;5047615;28;20028;-65
2022/09/25 02:31:59;;;;;;;50.05;24.98;;;;;;;;;;5048766;28;20272;-65
2022/09/25 02:34:24;;;;;;;53.10;24.70;;;;;;;;;;5050032;28;20367;-65
2022/09/25 02:36:49;;;;;;;41.10;22.50;;;;;;;;;;5050208;28;20124;-65
2022/09/25 02:39:16;;;;;;;47.35;24.38;;;;;;;;;;5049996;28;20116;-65
2022/09/25 02:41:44;;;;;;;51.97;23.80;;;;;;;;;;5046273;28;20025;-65
2022/09/25 02:44:30;;;;;;;43.75;22.88;;;;;;;;;;5047596;28;20032;-65
2022/09/25 02:46:55;;;;;;;38.22;20.45;;;;;;;;;;5047333;28;20048;-65
2022/09/25 02:49:28;;;;;;;44.67;20.73;;;;;;;;;;5050615;28;20402;-65
2022/09/25 02:52:00;;;;;;;44.40;20.13;;;;;;;;;;5050233;28;20064;-65
2022/09/25 02:54:31;;;;;;;31.00;17.88;;;;;;;;;;5048573;28;20025;-65
2022/09/25 02:57:13;;;;;;;37.67;16.98;;;;;;;;;;5045943;28;20017;-65
2022/09/25 02:59:45;;;;;;;24.65;14.30;;;;;;;;;;5051838;28;20020;-65
2022/09/25 03:02:10;;;;;;;36.85;15.73;;;;;;;;;;5047022;28;20489;-65
2022/09/25 03:04:37;;;;;;;29.50;13.82;;;;;;;;;;5049046;28;20033;-65
2022/09/25 03:07:03;;;;;;;29.77;13.20;;;;;;;;;;5049225;28;20040;-65
2022/09/25 03:09:30;;;;;;;28.92;12.80;;;;;;;;;;5046399;28;20021;-65
2022/09/25 03:11:56;;;;;;;30.45;12.13;;;;;;;;;;5048561;28;20500;-65
2022/09/25 03:14:22;;;;;;;24.58;12.10;;;;;;;;;;5049012;28;20016;-65
2022/09/25 03:16:51;;;;;;;22.60;11.77;;;;;;;;;;5048842;28;20074;-65
2022/09/25 03:19:20;;;;;;;33.00;13.00;;;;;;;;;;5048799;28;20025;-65
2022/09/25 03:21:46;;;;;;;22.67;11.50;;;;;;;;;;5049040;28;20526;-65
2022/09/25 03:24:11;;;;;;;25.15;12.10;;;;;;;;;;5047851;28;20051;-65
2022/09/25 03:26:36;;;;;;;28.02;13.20;;;;;;;;;;5011104;28;1044295;-65
2022/09/25 03:29:02;;;;;;;21.40;11.07;;;;;;;;;;5048656;28;20535;-65
2022/09/25 03:31:28;;;;;;;25.27;12.15;;;;;;;;;;5048738;28;20428;-65
2022/09/25 03:33:54;;;;;;;28.17;11.85;;;;;;;;;;5048743;28;20021;-65
2022/09/25 03:36:20;;;;;;;22.20;11.02;;;;;;;;;;5049904;28;20013;-65
2022/09/25 03:38:48;;;;;;;28.08;11.10;;;;;;;;;;5049941;28;20029;-65
2022/09/25 03:41:14;;;;;;;27.92;11.00;;;;;;;;;;5030203;28;20021;-65
2022/09/25 03:43:40;;;;;;;28.67;10.10;;;;;;;;;;5049132;28;20389;-65
2022/09/25 03:46:07;;;;;;;19.63;9.43;;;;;;;;;;5048620;28;20052;-65
2022/09/25 03:48:32;;;;;;;21.60;9.15;;;;;;;;;;5048472;28;20024;-65
2022/09/25 03:50:58;;;;;;;22.45;7.95;;;;;;;;;;5052638;28;20021;-65
2022/09/25 03:53:24;;;;;;;17.23;8.10;;;;;;;;;;5051466;28;20473;-65
2022/09/25 03:55:49;;;;;;;24.10;7.80;;;;;;;;;;5051840;28;20084;-65
2022/09/25 03:58:15;;;;;;;20.20;7.53;;;;;;;;;;5052015;28;20021;-65
2022/09/25 04:00:40;;;;;;;13.20;6.30;;;;;;;;;;5049588;28;20017;-65
2022/09/25 04:03:06;;;;;;;17.13;6.47;;;;;;;;;;5051594;28;20071;-65
2022/09/25 04:05:31;;;;;;;12.02;4.75;;;;;;;;;;5051975;28;20043;-65
2022/09/25 04:07:56;;;;;;;13.82;4.50;;;;;;;;;;5051179;28;20025;-65
2022/09/25 04:10:22;;;;;;;11.98;4.03;;;;;;;;;;5050292;28;20389;-65
2022/09/25 04:12:47;;;;;;;14.10;4.17;;;;;;;;;;5047780;28;20054;-65
2022/09/25 04:15:12;;;;;;;11.47;3.67;;;;;;;;;;5053079;28;20267;-65
2022/09/25 04:17:37;;;;;;;10.45;4.07;;;;;;;;;;5055613;28;20337;-65
2022/09/25 04:20:02;;;;;;;19.00;3.70;;;;;;;;;;5057991;28;20366;-65
2022/09/25 04:22:28;;;;;;;12.60;3.50;;;;;;;;;;5051314;28;20271;-65
2022/09/25 04:24:53;;;;;;;11.47;3.00;;;;;;;;;;5046566;28;20041;-65
2022/09/25 04:27:22;;;;;;;12.93;3.40;;;;;;;;;;5022813;22;20325;-64
2022/09/25 04:29:47;;;;;;;18.35;3.65;;;;;;;;;;4992099;28;20030;-65
2022/09/25 04:34:57;;;;;;;9.98;2.83;;;;;;;;;;4993856;28;20053;-65
2022/09/25 04:37:25;;;;;;;13.52;2.70;;;;;;;;;;4991837;28;20037;-65
2022/09/25 04:39:50;;;;;;;13.82;2.97;;;;;;;;;;4994495;28;20030;-65
2022/09/25 04:42:16;;;;;;;19.40;2.50;;;;;;;;;;4992333;28;20022;-65
2022/09/25 04:44:41;;;;;;;11.48;3.35;;;;;;;;;;4992164;28;20054;-65
2022/09/25 04:47:06;;;;;;;24.73;3.97;;;;;;;;;;4993536;28;20022;-65
2022/09/25 04:49:31;;;;;;;14.53;3.43;;;;;;;;;;4992414;28;20018;-65
2022/09/25 04:51:56;;;;;;;12.67;2.73;;;;;;;;;;4993282;28;20780;-65
2022/09/25 04:54:22;;;;;;;12.77;2.90;;;;;;;;;;4995202;28;20356;-65
2022/09/25 04:56:47;;;;;;;13.07;2.50;;;;;;;;;;4975716;28;20630;-65
2022/09/25 04:59:16;;;;;;;14.93;2.85;;;;;;;;;;4992785;28;20277;-65
2022/09/25 05:01:41;;;;;;;14.82;3.53;;;;;;;;;;4972963;28;20026;-65
2022/09/25 05:04:06;;;;;;;15.03;2.40;;;;;;;;;;4991848;28;20026;-65
2022/09/25 05:06:32;;;;;;;20.38;3.53;;;;;;;;;;4992471;28;20372;-65
2022/09/25 05:08:58;;;;;;;20.00;2.70;;;;;;;;;;4992159;28;20157;-65
2022/09/25 05:11:23;;;;;;;10.23;2.58;;;;;;;;;;4992026;28;21318;-65
2022/09/25 05:13:50;;;;;;;15.30;2.65;;;;;;;;;;4992064;28;20027;-65
2022/09/25 05:16:15;;;;;;;18.58;3.40;;;;;;;;;;4989948;28;20446;-65
2022/09/25 05:18:40;;;;;;;12.50;2.38;;;;;;;;;;4992085;28;20025;-65
2022/09/25 05:21:05;;;;;;;11.35;2.30;;;;;;;;;;5003406;28;20029;-65
2022/09/25 05:23:30;;;;;;;13.93;2.57;;;;;;;;;;4994032;28;20033;-65
2022/09/25 05:26:01;;;;;;;19.83;2.70;;;;;;;;;;4990282;28;21084;-65
2022/09/25 05:28:29;;;;;;;25.35;3.85;;;;;;;;;;4995209;28;20019;-65
2022/09/25 05:30:57;;;;;;;11.73;2.47;;;;;;;;;;4991323;28;20018;-65
2022/09/25 05:33:22;;;;;;;12.10;3.00;;;;;;;;;;4989021;28;20049;-65
2022/09/25 05:35:47;;;;;;;14.27;2.80;;;;;;;;;;4992685;28;20023;-65
2022/09/25 05:38:13;;;;;;;10.50;2.43;;;;;;;;;;4991914;28;20332;-64
2022/09/25 05:40:38;;;;;;;13.32;2.88;;;;;;;;;;4992711;28;20257;-64
2022/09/25 05:43:04;;;;;;;23.80;2.80;;;;;;;;;;4991710;28;20037;-64
2022/09/25 05:45:29;;;;;;;11.38;2.35;;;;;;;;;;4991791;28;20277;-64
2022/09/25 05:48:05;;;;;;;14.07;2.77;;;;;;;;;;4991643;28;20483;-64
2022/09/25 05:50:33;;;;;;;12.60;3.03;;;;;;;;;;4987417;28;20815;-64
2022/09/25 05:52:59;;;;;;;12.30;2.35;;;;;;;;;;4988335;28;20024;-64
2022/09/25 05:55:25;;;;;;;14.27;3.85;;;;;;;;;;4990067;28;20023;-64
2022/09/25 05:57:50;;;;;;;21.23;2.88;;;;;;;;;;4991931;28;20901;-65
2022/09/25 06:00:16;;;;;;;15.13;2.53;;;;;;;;;;4989970;28;20495;-64
2022/09/25 06:02:41;;;;;;;17.90;3.22;;;;;;;;;;4986653;28;20077;-64
2022/09/25 06:05:07;;;;;;;16.17;2.53;;;;;;;;;;4989907;28;20018;-64
2022/09/25 06:07:33;;;;;;;19.02;2.50;;;;;;;;;;4989728;28;20096;-64
2022/09/25 06:09:58;;;;;;;13.35;2.97;;;;;;;;;;4992376;28;20034;-64
2022/09/25 06:12:23;;;;;;;9.20;2.20;;;;;;;;;;4990977;28;20348;-64
2022/09/25 06:14:48;;;;;;;11.30;2.08;;;;;;;;;;4991478;28;20269;-64
2022/09/25 06:17:13;;;;;;;15.10;2.00;;;;;;;;;;4989352;28;20041;-64
2022/09/25 06:19:39;;;;;;;18.30;3.27;;;;;;;;;;4991808;28;20281;-64
2022/09/25 06:22:04;;;;;;;16.33;2.53;;;;;;;;;;4989662;28;20296;-64
2022/09/25 06:24:29;;;;;;;9.57;2.38;;;;;;;;;;4991227;28;20033;-64
2022/09/25 06:26:54;;;;;;;10.20;2.17;;;;;;;;;;4990113;28;20030;-64
2022/09/25 06:29:19;;;;;;;11.73;2.47;;;;;;;;;;4990721;28;20272;-64
2022/09/25 06:31:45;;;;;;;36.73;3.60;;;;;;;;;;4990394;28;20094;-64
2022/09/25 06:34:11;;;;;;;22.05;2.20;;;;;;;;;;4989731;28;20273;-64
2022/09/25 06:36:36;;;;;;;12.35;2.10;;;;;;;;;;4990388;28;20446;-64
2022/09/25 06:39:02;;;;;;;19.33;3.17;;;;;;;;;;4991041;28;20026;-64
2022/09/25 06:41:27;;;;;;;12.13;2.45;;;;;;;;;;4995595;28;20014;-64
2022/09/25 06:43:52;;;;;;;16.88;2.13;;;;;;;;;;4992544;28;20026;-64
2022/09/25 06:46:18;;;;;;;20.40;2.53;;;;;;;;;;4990557;28;20125;-64
2022/09/25 06:48:49;;;;;;;13.43;2.67;;;;;;;;;;4985435;28;20042;-64
2022/09/25 06:51:14;;;;;;;11.00;2.30;;;;;;;;;;4988772;28;20539;-64
2022/09/25 06:53:39;;;;;;;12.50;2.10;;;;;;;;;;4989572;28;20034;-65
2022/09/25 06:56:04;;;;;;;16.43;2.43;;;;;;;;;;4990029;28;20277;-64
2022/09/25 06:58:30;;;;;;;24.70;2.40;;;;;;;;;;4990805;28;20343;-64
2022/09/25 07:00:55;;;;;;;18.52;2.80;;;;;;;;;;4987496;28;20022;-65
2022/09/25 07:06:06;;;;;;;16.58;3.30;;;;;;;;;;4993398;28;20259;-64
2022/09/25 07:08:31;;;;;;;19.42;2.67;;;;;;;;;;4989056;28;20090;-64
2022/09/25 07:10:57;;;;;;;17.00;2.28;;;;;;;;;;4986384;28;20022;-64
2022/09/25 07:13:27;;;;;;;18.75;3.67;;;;;;;;;;4987488;28;20371;-64
2022/09/25 07:15:53;;;;;;;20.50;3.13;;;;;;;;;;4985016;28;20109;-64
2022/09/25 07:18:19;;;;;;;13.05;2.45;;;;;;;;;;4988308;28;20402;-64
2022/09/25 07:20:45;;;;;;;13.32;2.88;;;;;;;;;;4989913;28;20018;-64
2022/09/25 07:23:12;;;;;;;12.10;3.17;;;;;;;;;;4986217;28;20045;-64
2022/09/25 07:25:37;;;;;;;16.83;3.50;;;;;;;;;;4987506;28;20037;-65
2022/09/25 07:28:02;;;;;;;14.83;2.97;;;;;;;;;;4986256;28;20030;-65
2022/09/25 07:30:28;;;;;;;16.57;3.23;;;;;;;;;;4989082;28;20348;-64
2022/09/25 07:32:53;;;;;;;14.65;3.97;;;;;;;;;;4986833;28;20726;-65
2022/09/25 07:35:19;;;;;;;9.10;2.80;;;;;;;;;;4989709;28;20018;-65
2022/09/25 07:37:44;;;;;;;22.23;3.83;;;;;;;;;;4988953;28;20497;-65
2022/09/25 07:40:12;;;;;;;19.23;3.17;;;;;;;;;;4990240;28;20049;-65
2022/09/25 07:42:38;;;;;;;18.73;3.90;;;;;;;;;;4988616;28;20281;-65
2022/09/25 07:45:03;;;;;;;15.35;4.10;;;;;;;;;;4986858;28;20046;-65
2022/09/25 07:47:28;;;;;;;10.55;2.35;;;;;;;;;;4987516;28;20046;-65
2022/09/25 07:49:53;;;;;;;14.83;2.77;;;;;;;;;;4989675;28;20018;-65
2022/09/25 07:52:18;;;;;;;19.40;2.70;;;;;;;;;;4985526;28;20670;-65
2022/09/25 07:54:44;;;;;;;14.73;2.60;;;;;;;;;;4993198;28;20110;-65
2022/09/25 07:57:09;;;;;;;9.90;2.50;;;;;;;;;;4987425;28;20026;-66
2022/09/25 07:59:34;;;;;;;8.40;2.77;;;;;;;;;;4989830;28;20661;-66
2022/09/25 08:01:59;;;;;;;13.27;2.17;;;;;;;;;;4990332;28;20693;-66
2022/09/25 08:04:24;;;;;;;22.17;2.33;;;;;;;;;;4990558;28;20828;-66
2022/09/25 08:06:49;;;;;;;10.23;2.73;;;;;;;;;;4987448;28;20290;-66
2022/09/25 08:09:15;;;;;;;10.30;2.83;;;;;;;;;;4987018;28;20297;-66
2022/09/25 08:11:40;;;;;;;12.47;3.20;;;;;;;;;;4987795;28;20022;-66
2022/09/25 08:14:05;;;;;;;11.48;1.95;;;;;;;;;;4989615;28;20287;-66
2022/09/25 08:16:30;;;;;;;12.77;2.30;;;;;;;;;;4990744;28;20030;-66
2022/09/25 08:18:55;;;;;;;14.73;2.42;;;;;;;;;;4988583;28;20101;-66
2022/09/25 08:21:21;;;;;;;15.67;2.63;;;;;;;;;;4989100;28;20026;-66
2022/09/25 08:23:50;;;;;;;18.92;2.40;;;;;;;;;;4988853;28;20022;-66
2022/09/25 08:26:16;;;;;;;9.30;1.83;;;;;;;;;;4985863;28;20088;-66
2022/09/25 08:28:41;;;;;;;10.65;2.13;;;;;;;;;;4988911;28;20022;-66
2022/09/25 08:31:07;;;;;;;9.63;1.80;;;;;;;;;;4994780;28;20026;-66
2022/09/25 08:33:33;;;;;;;12.55;2.50;;;;;;;;;;4988054;28;20920;-66
2022/09/25 08:35:59;;;;;;;13.02;2.40;;;;;;;;;;4989353;28;20026;-66
2022/09/25 08:38:25;;;;;;;13.73;1.83;;;;;;;;;;4996144;28;20049;-66
2022/09/25 08:40:53;;;;;;;11.00;2.25;;;;;;;;;;4996353;28;20516;-66
2022/09/25 08:43:20;;;;;;;10.88;1.67;;;;;;;;;;4994537;28;20037;-66
2022/09/25 08:49:05;;;;;;;15.00;1.85;;;;;;;;;;4939884;28;20062;-66
2022/09/25 08:51:35;;;;;;;22.42;2.17;;;;;;;;;;4989295;28;20023;-66
2022/09/25 08:54:01;;;;;;;13.52;1.40;;;;;;;;;;4988694;28;20030;-66
2022/09/25 08:56:27;;;;;;;9.68;1.83;;;;;;;;;;4989516;28;20113;-66
2022/09/25 08:58:52;;;;;;;9.57;1.20;;;;;;;;;;4991683;28;20117;-66
2022/09/25 09:01:25;;;;;;;12.52;1.50;;;;;;;;;;4996326;28;20100;-65
2022/09/25 09:03:59;;;;;;;18.70;2.65;;;;;;;;;;4997992;28;20644;-65
2022/09/25 09:06:26;;;;;;;15.18;3.38;;;;;;;;;;4973910;28;20030;-65
2022/09/25 09:08:59;;;;;;;14.57;2.60;;;;;;;;;;4989449;28;20026;-65
2022/09/25 09:11:42;;;;;;;13.85;2.40;;;;;;;;;;4997494;28;20057;-65
2022/09/25 09:14:14;;;;;;;15.68;1.52;;;;;;;;;;4996165;28;20390;-65
2022/09/25 09:16:53;;;;;;;9.23;1.30;;;;;;;;;;4995793;28;20014;-65
2022/09/25 09:19:18;;;;;;;6.60;1.02;;;;;;;;;;4994869;28;20379;-65
2022/09/25 09:21:47;;;;;;;9.97;1.27;;;;;;;;;;4995670;28;20006;-65
2022/09/25 09:24:17;;;;;;;8.25;1.10;;;;;;;;;;4992998;28;20292;-65
2022/09/25 09:26:42;;;;;;;7.78;1.10;;;;;;;;;;4993875;28;20029;-65
2022/09/25 09:29:22;;;;;;;7.90;1.10;;;;;;;;;;4992136;28;20415;-65
2022/09/25 09:32:05;;;;;;;10.88;1.60;;;;;;;;;;4992108;28;20499;-65
2022/09/25 09:34:33;;;;;;;6.68;1.40;;;;;;;;;;4993930;28;20038;-65
2022/09/25 09:37:04;;;;;;;7.72;1.65;;;;;;;;;;4995407;28;20022;-65
2022/09/25 09:39:37;;;;;;;6.35;1.05;;;;;;;;;;4993076;28;20034;-65
2022/09/25 09:42:21;;;;;;;4.70;1.45;;;;;;;;;;5000851;28;20503;-65
2022/09/25 09:44:52;;;;;;;9.77;0.98;;;;;;;;;;4989592;28;20613;-65
2022/09/25 09:47:33;;;;;;;4.00;1.08;;;;;;;;;;4996867;28;20383;-65
2022/09/25 09:50:17;;;;;;;7.60;0.98;;;;;;;;;;4995207;28;20026;-65
2022/09/25 09:52:43;;;;;;;8.43;1.38;;;;;;;;;;4989845;28;20084;-65
2022/09/25 09:55:27;;;;;;;10.43;1.33;;;;;;;;;;4992015;28;21829;-65
2022/09/25 09:57:54;;;;;;;9.13;1.33;;;;;;;;;;4993296;28;20199;-65
2022/09/25 10:00:21;;;;;;;18.75;1.90;;;;;;;;;;4992387;28;20030;-65
2022/09/25 10:02:59;;;;;;;12.82;1.33;;;;;;;;;;4992631;28;20026;-65
2022/09/25 10:05:36;;;;;;;5.75;1.05;;;;;;;;;;4992823;28;20050;-65
2022/09/25 10:08:01;;;;;;;8.20;1.17;;;;;;;;;;4993951;28;20102;-65
2022/09/25 10:10:34;;;;;;;8.73;1.77;;;;;;;;;;4994269;28;20113;-65
2022/09/25 10:13:05;;;;;;;5.75;1.05;;;;;;;;;;4993578;28;20025;-65
2022/09/25 10:15:47;;;;;;;11.50;1.70;;;;;;;;;;4992271;28;20499;-65
2022/09/25 10:18:13;;;;;;;13.10;1.73;;;;;;;;;;4992234;28;20046;-65
2022/09/25 10:20:43;;;;;;;9.48;0.90;;;;;;;;;;4991433;28;20479;-65
2022/09/25 10:23:23;;;;;;;9.77;0.73;;;;;;;;;;4994765;28;20550;-66
2022/09/25 10:25:48;;;;;;;6.72;1.00;;;;;;;;;;5035500;23;20350;-68
2022/09/25 10:28:21;;;;;;;5.90;1.13;;;;;;;;;;5051011;28;20036;-68
2022/09/25 10:30:46;;;;;;;6.25;1.00;;;;;;;;;;5051634;28;20255;-68
2022/09/25 10:33:22;;;;;;;6.78;1.40;;;;;;;;;;5051302;28;20020;-68
2022/09/25 10:35:49;;;;;;;9.98;1.60;;;;;;;;;;5049932;28;20132;-69
2022/09/25 10:38:35;;;;;;;10.15;1.30;;;;;;;;;;5054164;28;20155;-69
2022/09/25 10:41:06;;;;;;;7.40;1.17;;;;;;;;;;5050737;28;20442;-68
2022/09/25 10:43:31;;;;;;;6.57;0.95;;;;;;;;;;5051565;28;20384;-68
2022/09/25 10:46:14;;;;;;;6.60;0.95;;;;;;;;;;5051022;28;20023;-68
2022/09/25 10:51:25;;;;;;;6.63;0.82;;;;;;;;;;5046101;28;20086;-68
2022/09/25 10:53:51;;;;;;;8.70;0.85;;;;;;;;;;5051031;28;20457;-68
2022/09/25 10:56:19;;;;;;;6.78;0.98;;;;;;;;;;5050661;28;20503;-69
2022/09/25 10:58:50;;;;;;;10.57;1.17;;;;;;;;;;5047303;28;20017;-68
2022/09/25 11:01:16;;;;;;;9.57;1.00;;;;;;;;;;5046018;28;20025;-68
2022/09/25 11:03:50;;;;;;;9.82;1.45;;;;;;;;;;5054256;28;20013;-68
2022/09/25 11:06:24;;;;;;;5.43;1.20;;;;;;;;;;5047699;28;20095;-69
2022/09/25 11:09:11;;;;;;;11.15;0.95;;;;;;;;;;5047034;28;20036;-69
2022/09/25 11:11:38;;;;;;;6.53;0.80;;;;;;;;;;5052803;28;20430;-69
2022/09/25 11:14:04;;;;;;;6.80;0.95;;;;;;;;;;5044681;28;20020;-69
2022/09/25 11:16:46;;;;;;;6.53;1.13;;;;;;;;;;5045356;28;20025;-68
2022/09/25 11:19:20;;;;;;;5.10;0.95;;;;;;;;;;5046307;28;20032;-69
2022/09/25 11:21:48;;;;;;;6.13;1.42;;;;;;;;;;5051907;28;20012;-69
2022/09/25 11:24:16;;;;;;;7.47;1.15;;;;;;;;;;5067552;28;20090;-68
2022/09/25 11:26:45;;;;;;;10.93;1.05;;;;;;;;;;5068803;28;20017;-68
2022/09/25 11:29:14;;;;;;;6.70;1.00;;;;;;;;;;5057249;28;20067;-68
2022/09/25 11:31:46;;;;;;;6.72;1.88;;;;;;;;;;5048625;28;20025;-67
2022/09/25 11:34:27;;;;;;;6.22;1.20;;;;;;;;;;5052984;28;20009;-67
2022/09/25 11:36:59;;;;;;;4.80;0.93;;;;;;;;;;5061935;28;20286;-67
2022/09/25 11:42:15;;;;;;;10.63;1.08;;;;;;;;;;5048896;28;20522;-67
2022/09/25 11:44:53;;;;;;;4.97;1.98;;;;;;;;;;5048434;28;20027;-68
2022/09/25 11:47:24;;;;;;;6.97;1.02;;;;;;;;;;5048428;28;20021;-67
2022/09/25 11:49:52;;;;;;;5.75;0.55;;;;;;;;;;5044980;28;20350;-67
2022/09/25 11:52:21;;;;;;;11.52;1.20;;;;;;;;;;5044563;28;20029;-68
2022/09/25 11:54:52;;;;;;;5.05;1.13;;;;;;;;;;5045747;28;20027;-66
2022/09/25 11:57:28;;;;;;;7.13;1.42;;;;;;;;;;5049129;28;20056;-69
2022/09/25 11:59:54;;;;;;;6.68;1.15;;;;;;;;;;5064468;28;20040;-68
2022/09/25 12:02:20;;;;;;;5.45;0.70;;;;;;;;;;5047276;28;20021;-66
2022/09/25 12:04:54;;;;;;;3.75;0.95;;;;;;;;;;5048798;28;20019;-68
2022/09/25 12:07:26;;;;;;;8.80;0.80;;;;;;;;;;5047268;28;20017;-68
2022/09/25 12:10:11;;;;;;;2.97;0.90;;;;;;;;;;5046953;28;20024;-69
2022/09/25 12:12:48;;;;;;;2.58;0.60;;;;;;;;;;5052698;28;20032;-70
2022/09/25 12:15:32;;;;;;;4.45;0.90;;;;;;;;;;5050210;28;20067;-70
2022/09/25 12:18:16;;;;;;;5.90;1.42;;;;;;;;;;5053802;28;20449;-68
2022/09/25 12:20:44;;;;;;;4.38;0.63;;;;;;;;;;5047553;28;20389;-71
2022/09/25 12:23:13;;;;;;;8.52;0.65;;;;;;;;;;5052373;28;20021;-69
2022/09/25 12:25:56;;;;;;;6.80;0.50;;;;;;;;;;5049371;28;20044;-70
2022/09/25 12:28:24;;;;;;;3.17;0.88;;;;;;;;;;5046090;28;20139;-68
2022/09/25 12:31:13;;;;;;;4.28;0.68;;;;;;;;;;5050139;28;20032;-70
2022/09/25 12:33:41;;;;;;;5.43;0.70;;;;;;;;;;5050224;28;20021;-70
2022/09/25 12:36:12;;;;;;;4.28;1.05;;;;;;;;;;5050641;28;20025;-70
2022/09/25 12:38:40;;;;;;;4.90;0.82;;;;;;;;;;5049638;28;20086;-70
2022/09/25 12:41:09;;;;;;;5.40;1.35;;;;;;;;;;5053088;28;20078;-70
2022/09/25 12:43:41;;;;;;;8.70;0.77;;;;;;;;;;5051888;28;20075;-70
2022/09/25 12:46:16;;;;;;;7.55;1.05;;;;;;;;;;5052295;28;20029;-68
2022/09/25 12:48:49;;;;;;;6.13;1.00;;;;;;;;;;5045910;28;20423;-68
2022/09/25 12:51:23;;;;;;;8.18;1.02;;;;;;;;;;5050779;28;20016;-68
2022/09/25 12:53:55;;;;;;;1.42;0.52;;;;;;;;;;5032834;28;20032;-68
2022/09/25 12:56:30;;;;;;;4.47;0.70;;;;;;;;;;5055711;28;20043;-68
2022/09/25 12:58:56;;;;;;;5.97;0.95;;;;;;;;;;5051602;28;20477;-68
2022/09/25 13:01:24;;;;;;;3.63;0.60;;;;;;;;;;5051508;28;20071;-69
2022/09/25 13:03:53;;;;;;;3.78;0.88;;;;;;;;;;5050820;28;20505;-68
2022/09/25 13:06:24;;;;;;;11.10;0.90;;;;;;;;;;5051765;28;20384;-68
2022/09/25 13:08:49;;;;;;;;;;;;;;;;;;5049572;28;20349;-68
2022/09/25 13:11:17;;;;;;;6.55;1.23;;;;;;;;;;5051001;28;19944;-68
2022/09/25 13:13:45;;;;;;;7.78;1.50;;;;;;;;;;5050615;28;20017;-68
2022/09/25 13:16:14;;;;;;;6.28;0.88;;;;;;;;;;5051934;28;20013;-70
2022/09/25 13:18:45;;;;;;;10.48;1.10;;;;;;;;;;5048408;28;20488;-68
2022/09/25 13:21:25;;;;;;;5.05;0.98;;;;;;;;;;5051183;28;20468;-70
2022/09/25 13:23:52;;;;;;;5.43;1.48;;;;;;;;;;5050338;28;20029;-69
2022/09/25 13:26:18;;;;;;;8.20;1.35;;;;;;;;;;5057448;28;20024;-68
2022/09/25 13:28:52;;;;;;;2.17;0.57;;;;;;;;;;5050437;28;20017;-69
2022/09/25 13:31:22;;;;;;;6.47;1.00;;;;;;;;;;5049993;28;20099;-68
2022/09/25 13:33:49;;;;;;;5.07;0.70;;;;;;;;;;5049375;28;20024;-68
2022/09/25 13:36:22;;;;;;;3.60;0.60;;;;;;;;;;5050632;28;20539;-68
2022/09/25 13:41:47;;;;;;;9.73;0.70;;;;;;;;;;5000394;28;20394;-68
2022/09/25 13:44:48;;;;;;;3.65;0.82;;;;;;;;;;5050239;28;20021;-69
2022/09/25 13:47:16;;;;;;;2.95;0.70;;;;;;;;;;4967772;28;20030;-70
2022/09/25 13:49:49;;;;;;;3.50;0.82;;;;;;;;;;5035232;28;20075;-71
2022/09/25 13:52:27;;;;;;;7.05;1.38;;;;;;;;;;5048476;28;20013;-68
2022/09/25 13:55:06;;;;;;;5.80;0.90;;;;;;;;;;5045167;28;20057;-68
2022/09/25 13:57:50;;;;;;;3.13;0.65;;;;;;;;;;5048242;28;20584;-70
2022/09/25 14:00:15;;;;;;;6.50;1.52;;;;;;;;;;5049884;28;20033;-66
2022/09/25 14:02:42;;;;;;;5.95;0.98;;;;;;;;;;5051469;28;20024;-67
2022/09/25 14:05:07;;;;;;;6.00;1.38;;;;;;;;;;5048229;28;20029;-70
2022/09/25 14:07:33;;;;;;;2.60;1.08;;;;;;;;;;5051390;28;20120;-68
2022/09/25 14:09:59;;;;;;;2.53;0.98;;;;;;;;;;5049693;28;20075;-68
2022/09/25 14:12:30;;;;;;;7.00;1.27;;;;;;;;;;5050073;28;20036;-69
2022/09/25 14:15:05;;;;;;;7.72;1.70;;;;;;;;;;5046943;28;20497;-67
2022/09/25 14:17:31;;;;;;;7.90;1.20;;;;;;;;;;5050254;28;20075;-66
2022/09/25 14:19:57;;;;;;;4.20;0.90;;;;;;;;;;5049568;28;20044;-67
2022/09/25 14:22:28;;;;;;;3.45;0.93;;;;;;;;;;5057558;28;20021;-67
2022/09/25 14:24:53;;;;;;;7.05;0.77;;;;;;;;;;5048131;28;20124;-67
2022/09/25 14:27:21;;;;;;;10.17;1.17;;;;;;;;;;5055581;28;20113;-68
2022/09/25 14:29:46;;;;;;;3.60;0.77;;;;;;;;;;5058377;28;20353;-70
2022/09/25 14:32:23;;;;;;;4.37;0.97;;;;;;;;;;5055220;28;20508;-67
2022/09/25 14:35:00;;;;;;;7.53;1.00;;;;;;;;;;5052906;28;20279;-69
2022/09/25 14:37:26;;;;;;;3.28;0.70;;;;;;;;;;5048265;28;20029;-66
2022/09/25 14:40:09;;;;;;;3.60;0.60;;;;;;;;;;5046098;28;20477;-70
2022/09/25 14:42:53;;;;;;;9.55;0.80;;;;;;;;;;5044448;28;20020;-67
2022/09/25 14:45:18;;;;;;;8.93;1.40;;;;;;;;;;5045807;28;20020;-67
2022/09/25 14:47:46;;;;;;;8.45;1.00;;;;;;;;;;5055574;28;20381;-67
2022/09/25 14:50:18;;;;;;;4.78;0.80;;;;;;;;;;5043530;28;20224;-68
2022/09/25 14:52:44;;;;;;;7.97;1.10;;;;;;;;;;5048012;28;20496;-68
2022/09/25 14:55:14;;;;;;;5.78;1.42;;;;;;;;;;5048775;28;20228;-68
2022/09/25 14:57:39;;;;;;;9.32;1.02;;;;;;;;;;5049070;28;20393;-68
2022/09/25 15:00:06;;;;;;;3.80;1.10;;;;;;;;;;5046094;28;20025;-69
2022/09/25 15:02:38;;;;;;;6.70;1.10;;;;;;;;;;5043650;28;20099;-68
2022/09/25 15:05:22;;;;;;;5.10;1.30;;;;;;;;;;5050346;28;20462;-68
2022/09/25 15:07:48;;;;;;;9.23;1.15;;;;;;;;;;5031443;28;20055;-68